Time;durP1;ratioP1;P1;durP2;ratioP2;P2;SDS_P1;SDS_P2;PMS_P1;PMS_P2;Temp;Humidity;BMP_temperature;BMP_pressure;BME280_temperature;BME280_humidity;BME280_pressure;Samples;Min_cycle;Max_cycle;Signal;HPM_P1;HPM_P2
2024/03/14 00:04:42;;;;;;;9.07;4.10;;;;;;;;;;5012098;28;20032;-59
2024/03/14 00:07:08;;;;;;;8.20;3.88;;;;;;;;;;5008793;28;20022;-60
2024/03/14 00:09:33;;;;;;;9.50;4.47;;;;;;;;;;5013567;28;20025;-58
2024/03/14 00:11:58;;;;;;;8.68;3.90;;;;;;;;;;5009884;28;20417;-59
2024/03/14 00:14:23;;;;;;;9.53;3.97;;;;;;;;;;5005139;28;20521;-59
2024/03/14 00:16:52;;;;;;;8.32;4.22;;;;;;;;;;5010465;28;20021;-60
2024/03/14 00:19:17;;;;;;;8.00;4.15;;;;;;;;;;5011884;28;20153;-59
2024/03/14 00:21:42;;;;;;;9.43;4.33;;;;;;;;;;5013248;28;20522;-59
2024/03/14 00:24:08;;;;;;;8.05;4.25;;;;;;;;;;5012287;28;20031;-59
2024/03/14 00:26:33;;;;;;;8.00;4.53;;;;;;;;;;5012963;28;20076;-59
2024/03/14 00:28:59;;;;;;;10.20;4.28;;;;;;;;;;5016656;28;20054;-58
2024/03/14 00:31:24;;;;;;;8.02;4.30;;;;;;;;;;5012780;28;20029;-58
2024/03/14 00:33:49;;;;;;;10.30;4.30;;;;;;;;;;5011847;28;20029;-60
2024/03/14 00:36:15;;;;;;;8.75;4.47;;;;;;;;;;5015044;28;20140;-64
2024/03/14 00:38:41;;;;;;;8.83;4.30;;;;;;;;;;5013540;28;20029;-59
2024/03/14 00:41:06;;;;;;;8.73;4.10;;;;;;;;;;5018732;28;20026;-59
2024/03/14 00:43:32;;;;;;;9.10;4.40;;;;;;;;;;5019496;28;20017;-59
2024/03/14 00:45:58;;;;;;;9.00;4.25;;;;;;;;;;5016832;28;20545;-59
2024/03/14 00:48:23;;;;;;;8.10;3.97;;;;;;;;;;5016261;28;20018;-59
2024/03/14 00:50:49;;;;;;;9.00;4.28;;;;;;;;;;5012628;28;20084;-58
2024/03/14 00:53:14;;;;;;;9.07;4.30;;;;;;;;;;5012525;28;20386;-58
2024/03/14 00:55:41;;;;;;;10.00;4.70;;;;;;;;;;5010967;28;20508;-60
2024/03/14 00:58:10;;;;;;;9.73;4.15;;;;;;;;;;5012537;28;20498;-59
2024/03/14 01:00:35;;;;;;;8.82;4.35;;;;;;;;;;5017587;28;20016;-59
2024/03/14 01:03:01;;;;;;;9.05;4.13;;;;;;;;;;5004231;28;20097;-59
2024/03/14 01:05:26;;;;;;;8.87;4.07;;;;;;;;;;5011430;28;20041;-60
2024/03/14 01:07:51;;;;;;;8.60;4.15;;;;;;;;;;5011970;28;20100;-60
2024/03/14 01:10:16;;;;;;;11.02;4.20;;;;;;;;;;5012463;28;20029;-59
2024/03/14 01:12:41;;;;;;;8.80;3.90;;;;;;;;;;5012360;28;20026;-59
2024/03/14 01:15:07;;;;;;;9.57;4.22;;;;;;;;;;5012646;28;20030;-59
2024/03/14 01:17:33;;;;;;;9.38;3.72;;;;;;;;;;5017161;28;20022;-58
2024/03/14 01:19:58;;;;;;;7.63;3.90;;;;;;;;;;5011907;28;20025;-59
2024/03/14 01:22:23;;;;;;;8.48;3.88;;;;;;;;;;5011565;28;20022;-59
2024/03/14 01:24:48;;;;;;;7.63;3.93;;;;;;;;;;5011904;28;20398;-60
2024/03/14 01:27:17;;;;;;;9.57;4.63;;;;;;;;;;5011857;28;20025;-59
2024/03/14 01:29:42;;;;;;;8.25;4.38;;;;;;;;;;5015309;28;20544;-59
2024/03/14 01:32:07;;;;;;;8.70;4.00;;;;;;;;;;5006538;28;20113;-59
2024/03/14 01:34:32;;;;;;;8.77;3.80;;;;;;;;;;5012432;28;20057;-60
2024/03/14 01:37:02;;;;;;;8.50;3.95;;;;;;;;;;5010814;28;20445;-59
2024/03/14 01:39:27;;;;;;;7.78;4.00;;;;;;;;;;5012350;28;20026;-60
2024/03/14 01:41:52;;;;;;;9.03;4.30;;;;;;;;;;5013193;28;20101;-60
2024/03/14 01:44:20;;;;;;;9.38;4.75;;;;;;;;;;5000364;28;20026;-59
2024/03/14 01:46:45;;;;;;;7.80;4.00;;;;;;;;;;5010242;28;20028;-59
2024/03/14 01:49:13;;;;;;;8.77;3.83;;;;;;;;;;5010056;28;20104;-60
2024/03/14 01:51:39;;;;;;;8.65;3.78;;;;;;;;;;5011125;28;20053;-60
2024/03/14 01:54:04;;;;;;;9.75;4.22;;;;;;;;;;5011526;28;20022;-59
2024/03/14 01:56:31;;;;;;;8.15;3.83;;;;;;;;;;5017068;28;20395;-60
2024/03/14 01:58:56;;;;;;;7.97;4.30;;;;;;;;;;5003094;28;20033;-60
2024/03/14 02:01:21;;;;;;;8.30;4.22;;;;;;;;;;5011248;28;20026;-60
2024/03/14 02:03:51;;;;;;;9.43;4.43;;;;;;;;;;5009281;28;20486;-58
2024/03/14 02:06:32;;;;;;;9.48;3.97;;;;;;;;;;5011452;28;20465;-60
2024/03/14 02:08:58;;;;;;;7.68;4.03;;;;;;;;;;5022975;28;20018;-59
2024/03/14 02:11:23;;;;;;;9.50;4.65;;;;;;;;;;5014406;28;20037;-61
2024/03/14 02:13:49;;;;;;;8.80;4.38;;;;;;;;;;5016157;28;20025;-61
2024/03/14 02:16:15;;;;;;;7.88;4.05;;;;;;;;;;5011295;28;20030;-59
2024/03/14 02:18:40;;;;;;;9.07;3.90;;;;;;;;;;5011553;28;20133;-59
2024/03/14 02:21:05;;;;;;;7.85;4.18;;;;;;;;;;5011218;28;20076;-60
2024/03/14 02:23:30;;;;;;;8.77;4.70;;;;;;;;;;5011520;28;20405;-61
2024/03/14 02:25:55;;;;;;;10.35;5.00;;;;;;;;;;5010709;28;20026;-59
2024/03/14 02:28:22;;;;;;;9.88;4.90;;;;;;;;;;5011276;28;20531;-60
2024/03/14 02:30:47;;;;;;;8.98;4.57;;;;;;;;;;5010764;28;20037;-59
2024/03/14 02:33:12;;;;;;;9.52;4.88;;;;;;;;;;5011591;28;20097;-60
2024/03/14 02:35:39;;;;;;;9.17;4.60;;;;;;;;;;5010038;28;20026;-60
2024/03/14 02:38:04;;;;;;;8.52;4.32;;;;;;;;;;5013096;28;20172;-60
2024/03/14 02:40:29;;;;;;;10.20;4.60;;;;;;;;;;5013651;28;20481;-58
2024/03/14 02:42:55;;;;;;;9.93;4.60;;;;;;;;;;5011531;28;20552;-59
2024/03/14 02:45:20;;;;;;;8.55;4.13;;;;;;;;;;5010941;28;20018;-59
2024/03/14 02:47:46;;;;;;;9.68;4.40;;;;;;;;;;5013020;28;20532;-60
2024/03/14 02:50:12;;;;;;;8.02;4.15;;;;;;;;;;5017919;28;20029;-60
2024/03/14 02:52:37;;;;;;;8.48;4.10;;;;;;;;;;5024240;28;20030;-61
2024/03/14 02:55:05;;;;;;;8.18;4.18;;;;;;;;;;5016825;28;20073;-59
2024/03/14 02:57:30;;;;;;;7.93;4.18;;;;;;;;;;5020781;28;20028;-59
2024/03/14 02:59:56;;;;;;;8.57;3.87;;;;;;;;;;5019050;28;20086;-60
2024/03/14 03:02:21;;;;;;;8.07;4.10;;;;;;;;;;5024124;28;20028;-59
2024/03/14 03:04:46;;;;;;;9.48;4.50;;;;;;;;;;5022159;28;20022;-60
2024/03/14 03:07:12;;;;;;;9.40;4.07;;;;;;;;;;5026147;28;20084;-60
2024/03/14 03:09:38;;;;;;;10.50;4.15;;;;;;;;;;5014369;28;20397;-60
2024/03/14 03:12:03;;;;;;;8.80;3.97;;;;;;;;;;5008037;28;20037;-59
2024/03/14 03:14:28;;;;;;;8.35;3.85;;;;;;;;;;5014198;28;20076;-59
2024/03/14 03:16:54;;;;;;;7.75;3.88;;;;;;;;;;5011924;28;20030;-60
2024/03/14 03:19:19;;;;;;;8.95;4.47;;;;;;;;;;5009480;28;20028;-60
2024/03/14 03:21:44;;;;;;;9.07;3.90;;;;;;;;;;5015841;28;20029;-59
2024/03/14 03:24:12;;;;;;;7.57;3.92;;;;;;;;;;5013909;28;20017;-60
2024/03/14 03:26:37;;;;;;;8.43;4.40;;;;;;;;;;5017309;28;20057;-60
2024/03/14 03:29:02;;;;;;;8.70;4.60;;;;;;;;;;5024708;28;20022;-59
2024/03/14 03:31:28;;;;;;;9.25;4.18;;;;;;;;;;5026065;28;20033;-59
2024/03/14 03:33:53;;;;;;;9.63;3.97;;;;;;;;;;5029598;28;20524;-59
2024/03/14 03:36:22;;;;;;;7.77;4.03;;;;;;;;;;5027773;28;20026;-59
2024/03/14 03:38:47;;;;;;;10.07;4.93;;;;;;;;;;5030701;28;20471;-60
2024/03/14 03:41:12;;;;;;;12.73;5.05;;;;;;;;;;5037077;28;20029;-61
2024/03/14 03:43:37;;;;;;;9.23;4.80;;;;;;;;;;5035472;28;20038;-58
2024/03/14 03:46:06;;;;;;;9.35;4.78;;;;;;;;;;5036165;28;20028;-59
2024/03/14 03:48:32;;;;;;;9.50;4.93;;;;;;;;;;5037061;28;20101;-60
2024/03/14 03:50:57;;;;;;;11.98;5.90;;;;;;;;;;5035065;28;20045;-59
2024/03/14 03:53:22;;;;;;;12.02;5.80;;;;;;;;;;5026157;28;20049;-59
2024/03/14 03:55:49;;;;;;;10.80;6.13;;;;;;;;;;5017824;28;20053;-59
2024/03/14 03:58:16;;;;;;;12.85;6.40;;;;;;;;;;5028196;28;20030;-58
2024/03/14 04:00:43;;;;;;;13.57;6.93;;;;;;;;;;5022730;28;20018;-60
2024/03/14 04:03:11;;;;;;;12.48;6.43;;;;;;;;;;5005814;28;20018;-60
2024/03/14 04:05:36;;;;;;;15.20;7.65;;;;;;;;;;4994249;28;20092;-59
2024/03/14 04:08:01;;;;;;;12.18;6.65;;;;;;;;;;4994334;28;20845;-61
2024/03/14 04:10:27;;;;;;;12.03;6.50;;;;;;;;;;5008153;28;20018;-59
2024/03/14 04:12:53;;;;;;;12.77;5.97;;;;;;;;;;5015893;28;21044;-60
2024/03/14 04:15:19;;;;;;;11.93;6.35;;;;;;;;;;5008890;28;20405;-59
2024/03/14 04:17:46;;;;;;;12.40;6.40;;;;;;;;;;5010937;28;20030;-60
2024/03/14 04:20:11;;;;;;;12.75;6.78;;;;;;;;;;5013159;28;20053;-59
2024/03/14 04:22:37;;;;;;;12.20;5.80;;;;;;;;;;5013316;28;20476;-60
2024/03/14 04:25:09;;;;;;;11.65;6.50;;;;;;;;;;5012891;28;20117;-60
2024/03/14 04:27:35;;;;;;;14.75;7.05;;;;;;;;;;5014778;28;20100;-59
2024/03/14 04:30:00;;;;;;;12.85;6.80;;;;;;;;;;5004728;28;20486;-58
2024/03/14 04:32:26;;;;;;;14.50;6.77;;;;;;;;;;5012873;28;20026;-59
2024/03/14 04:34:52;;;;;;;13.38;6.75;;;;;;;;;;5011644;28;20129;-59
2024/03/14 04:37:17;;;;;;;15.20;6.83;;;;;;;;;;5017943;28;20042;-60
2024/03/14 04:39:42;;;;;;;10.98;6.13;;;;;;;;;;5012183;28;20536;-60
2024/03/14 04:42:07;;;;;;;12.37;6.17;;;;;;;;;;5011857;28;20474;-60
2024/03/14 04:44:35;;;;;;;14.25;7.00;;;;;;;;;;5012557;28;20026;-59
2024/03/14 04:47:03;;;;;;;14.40;6.55;;;;;;;;;;5013269;28;20028;-59
2024/03/14 04:49:28;;;;;;;14.20;6.53;;;;;;;;;;5004273;28;20026;-60
2024/03/14 04:51:54;;;;;;;14.93;6.65;;;;;;;;;;5010292;28;20029;-58
2024/03/14 04:54:20;;;;;;;13.02;6.30;;;;;;;;;;5011129;28;20065;-60
2024/03/14 04:56:45;;;;;;;12.27;6.65;;;;;;;;;;5030542;28;20052;-59
2024/03/14 04:59:12;;;;;;;13.80;6.95;;;;;;;;;;5027854;28;20029;-59
2024/03/14 05:01:38;;;;;;;14.48;7.25;;;;;;;;;;5010709;28;20077;-61
2024/03/14 05:04:03;;;;;;;13.10;6.85;;;;;;;;;;5010301;28;20026;-58
2024/03/14 05:06:28;;;;;;;13.73;7.10;;;;;;;;;;5013493;28;20098;-59
2024/03/14 05:08:54;;;;;;;15.87;7.23;;;;;;;;;;5009266;28;20030;-60
2024/03/14 05:11:19;;;;;;;16.05;7.15;;;;;;;;;;5010564;28;20030;-58
2024/03/14 05:13:46;;;;;;;14.38;6.97;;;;;;;;;;4964092;28;20217;-59
2024/03/14 05:16:11;;;;;;;13.05;6.72;;;;;;;;;;4966263;28;20030;-60
2024/03/14 05:18:37;;;;;;;13.70;6.93;;;;;;;;;;5004932;28;20025;-61
2024/03/14 05:21:03;;;;;;;15.00;7.47;;;;;;;;;;5009434;28;20052;-60
2024/03/14 05:23:29;;;;;;;15.52;6.88;;;;;;;;;;5003996;28;20502;-61
2024/03/14 05:25:57;;;;;;;15.38;6.97;;;;;;;;;;5003950;28;20034;-60
2024/03/14 05:28:22;;;;;;;13.88;7.15;;;;;;;;;;5006352;28;20330;-60
2024/03/14 05:30:47;;;;;;;13.40;6.30;;;;;;;;;;5011257;28;20030;-60
2024/03/14 05:33:13;;;;;;;14.07;6.97;;;;;;;;;;5009682;28;20017;-60
2024/03/14 05:35:39;;;;;;;16.17;7.00;;;;;;;;;;5014270;28;20075;-60
2024/03/14 05:38:04;;;;;;;12.63;6.80;;;;;;;;;;5020412;28;20120;-61
2024/03/14 05:40:30;;;;;;;15.23;7.88;;;;;;;;;;5020578;28;20065;-63
2024/03/14 05:42:55;;;;;;;13.88;7.15;;;;;;;;;;5018836;28;20042;-60
2024/03/14 05:45:21;;;;;;;17.55;7.15;;;;;;;;;;5016541;28;20058;-60
2024/03/14 05:47:46;;;;;;;13.88;7.10;;;;;;;;;;5024225;28;20064;-60
2024/03/14 05:50:11;;;;;;;16.27;7.33;;;;;;;;;;5014765;28;20017;-60
2024/03/14 05:52:36;;;;;;;13.83;6.67;;;;;;;;;;5018871;28;20021;-59
2024/03/14 05:55:03;;;;;;;15.20;7.20;;;;;;;;;;5013317;28;20389;-58
2024/03/14 05:57:28;;;;;;;17.25;8.52;;;;;;;;;;5011736;28;20124;-58
2024/03/14 05:59:54;;;;;;;15.13;7.68;;;;;;;;;;5008488;28;20134;-59
2024/03/14 06:02:19;;;;;;;13.10;7.00;;;;;;;;;;5009456;28;20030;-59
2024/03/14 06:04:45;;;;;;;14.93;7.73;;;;;;;;;;5006313;28;20100;-58
2024/03/14 06:07:11;;;;;;;15.25;6.68;;;;;;;;;;5000109;28;20071;-59
2024/03/14 06:09:41;;;;;;;15.35;7.20;;;;;;;;;;5009330;28;20037;-60
2024/03/14 06:12:08;;;;;;;14.50;7.45;;;;;;;;;;5006756;28;20083;-59
2024/03/14 06:14:33;;;;;;;15.38;7.53;;;;;;;;;;5006621;28;20021;-59
2024/03/14 06:16:58;;;;;;;16.65;7.43;;;;;;;;;;5008531;28;20045;-60
2024/03/14 06:19:23;;;;;;;14.45;7.60;;;;;;;;;;4999058;28;20037;-60
2024/03/14 06:21:50;;;;;;;19.07;8.17;;;;;;;;;;5012552;28;20041;-59
2024/03/14 06:24:16;;;;;;;14.75;7.32;;;;;;;;;;5012678;28;20033;-60
2024/03/14 06:26:41;;;;;;;17.92;8.73;;;;;;;;;;5015084;28;20033;-59
2024/03/14 06:29:07;;;;;;;16.48;8.13;;;;;;;;;;5007546;28;20034;-60
2024/03/14 06:31:32;;;;;;;18.65;8.82;;;;;;;;;;5000429;28;20036;-61
2024/03/14 06:33:57;;;;;;;18.53;8.40;;;;;;;;;;5008817;28;20092;-59
2024/03/14 06:36:23;;;;;;;16.40;8.40;;;;;;;;;;5004533;28;20109;-60
2024/03/14 06:38:49;;;;;;;15.05;8.10;;;;;;;;;;5005979;28;20022;-59
2024/03/14 06:41:15;;;;;;;16.73;9.00;;;;;;;;;;5007883;28;20527;-58
2024/03/14 06:43:42;;;;;;;16.73;8.65;;;;;;;;;;5011518;28;20050;-59
2024/03/14 06:46:08;;;;;;;16.30;8.38;;;;;;;;;;5010477;28;20433;-61
2024/03/14 06:48:33;;;;;;;16.35;8.63;;;;;;;;;;5010886;28;20022;-58
2024/03/14 06:50:58;;;;;;;17.53;9.07;;;;;;;;;;5009432;28;20037;-59
2024/03/14 06:53:23;;;;;;;17.13;9.03;;;;;;;;;;5011987;28;21197;-58
2024/03/14 06:55:49;;;;;;;16.30;8.50;;;;;;;;;;5003693;28;20025;-60
2024/03/14 06:58:16;;;;;;;15.68;8.93;;;;;;;;;;5009353;28;20040;-60
2024/03/14 07:00:42;;;;;;;14.50;7.70;;;;;;;;;;5015102;28;20470;-59
2024/03/14 07:03:09;;;;;;;15.48;8.35;;;;;;;;;;5010168;28;20573;-60
2024/03/14 07:05:36;;;;;;;15.98;8.00;;;;;;;;;;5009708;28;20021;-59
2024/03/14 07:08:03;;;;;;;17.38;9.32;;;;;;;;;;5010255;28;20022;-60
2024/03/14 07:10:29;;;;;;;15.77;7.95;;;;;;;;;;5010349;28;20029;-60
2024/03/14 07:12:57;;;;;;;16.83;8.40;;;;;;;;;;5009344;28;20030;-59
2024/03/14 07:15:22;;;;;;;18.45;8.73;;;;;;;;;;5010173;28;20030;-59
2024/03/14 07:17:48;;;;;;;16.30;9.33;;;;;;;;;;5017574;28;20497;-59
2024/03/14 07:20:24;;;;;;;17.03;8.30;;;;;;;;;;5008950;28;20449;-58
2024/03/14 07:22:49;;;;;;;16.95;9.55;;;;;;;;;;5012706;28;20064;-57
2024/03/14 07:25:17;;;;;;;17.93;9.10;;;;;;;;;;5013448;28;20030;-58
2024/03/14 07:27:44;;;;;;;16.65;8.73;;;;;;;;;;5014523;28;20014;-60
2024/03/14 07:30:14;;;;;;;17.73;8.30;;;;;;;;;;5013809;28;20038;-59
2024/03/14 07:32:40;;;;;;;15.90;8.35;;;;;;;;;;5016633;28;20049;-58
2024/03/14 07:35:06;;;;;;;18.73;8.65;;;;;;;;;;5028562;28;20021;-59
2024/03/14 07:37:31;;;;;;;20.13;9.00;;;;;;;;;;5015612;28;20022;-58
2024/03/14 07:39:56;;;;;;;18.15;8.70;;;;;;;;;;5013421;28;20072;-59
2024/03/14 07:42:21;;;;;;;16.00;8.13;;;;;;;;;;5016341;28;20026;-59
2024/03/14 07:44:46;;;;;;;14.83;7.90;;;;;;;;;;5015219;28;20018;-61
2024/03/14 07:47:19;;;;;;;14.57;7.63;;;;;;;;;;5026825;28;20030;-59
2024/03/14 07:49:45;;;;;;;15.52;8.30;;;;;;;;;;5031871;28;20030;-62
2024/03/14 07:52:10;;;;;;;16.00;8.45;;;;;;;;;;5021147;28;20176;-59
2024/03/14 07:54:36;;;;;;;14.60;8.03;;;;;;;;;;5014785;28;20033;-58
2024/03/14 07:57:02;;;;;;;16.75;8.50;;;;;;;;;;5005534;28;20109;-59
2024/03/14 07:59:27;;;;;;;18.30;9.43;;;;;;;;;;4993863;28;20093;-59
2024/03/14 08:01:53;;;;;;;16.52;9.00;;;;;;;;;;4999936;28;20096;-59
2024/03/14 08:04:23;;;;;;;19.15;8.80;;;;;;;;;;5013748;28;20054;-59
2024/03/14 08:06:49;;;;;;;17.48;8.07;;;;;;;;;;5017533;28;20109;-60
2024/03/14 08:09:14;;;;;;;19.50;10.07;;;;;;;;;;5018779;28;20053;-59
2024/03/14 08:11:41;;;;;;;16.63;9.60;;;;;;;;;;5032418;28;20093;-60
2024/03/14 08:14:07;;;;;;;18.65;10.43;;;;;;;;;;5017349;28;20556;-59
2024/03/14 08:16:32;;;;;;;18.38;9.98;;;;;;;;;;5008122;28;20026;-59
2024/03/14 08:18:57;;;;;;;20.73;10.53;;;;;;;;;;5013785;28;20038;-60
2024/03/14 08:21:22;;;;;;;17.00;9.98;;;;;;;;;;5013353;28;20034;-58
2024/03/14 08:23:47;;;;;;;20.45;10.82;;;;;;;;;;5013317;28;20079;-59
2024/03/14 08:26:13;;;;;;;19.02;10.93;;;;;;;;;;5014120;28;20029;-58
2024/03/14 08:28:41;;;;;;;18.75;10.25;;;;;;;;;;5014366;28;20402;-59
2024/03/14 08:31:14;;;;;;;18.20;10.65;;;;;;;;;;5016037;28;20073;-59
2024/03/14 08:33:39;;;;;;;22.15;11.18;;;;;;;;;;5016994;28;20052;-59
2024/03/14 08:36:05;;;;;;;15.90;9.70;;;;;;;;;;5017137;28;20783;-59
2024/03/14 08:38:34;;;;;;;19.80;10.70;;;;;;;;;;5021055;28;20017;-59
2024/03/14 08:40:59;;;;;;;16.60;9.80;;;;;;;;;;5025661;28;20408;-59
2024/03/14 08:43:24;;;;;;;17.57;9.90;;;;;;;;;;5021207;28;20100;-59
2024/03/14 08:45:52;;;;;;;17.30;10.50;;;;;;;;;;5027180;28;20525;-59
2024/03/14 08:48:17;;;;;;;16.85;10.18;;;;;;;;;;5033703;28;20034;-60
2024/03/14 08:50:43;;;;;;;17.63;10.48;;;;;;;;;;5021122;28;20029;-60
2024/03/14 08:53:12;;;;;;;17.00;10.10;;;;;;;;;;5022170;28;20498;-59
2024/03/14 08:55:39;;;;;;;17.45;9.52;;;;;;;;;;5023421;28;20029;-59
2024/03/14 08:58:08;;;;;;;15.35;8.70;;;;;;;;;;5023435;28;20449;-60
2024/03/14 09:00:33;;;;;;;17.33;9.95;;;;;;;;;;5013361;28;20053;-58
2024/03/14 09:03:01;;;;;;;17.63;10.27;;;;;;;;;;5011590;28;20062;-59
2024/03/14 09:05:26;;;;;;;16.00;8.60;;;;;;;;;;5026799;28;20033;-59
2024/03/14 09:07:52;;;;;;;19.45;10.43;;;;;;;;;;5026963;28;20022;-60
2024/03/14 09:10:23;;;;;;;15.45;9.50;;;;;;;;;;5022093;28;20025;-59
2024/03/14 09:12:48;;;;;;;16.63;10.48;;;;;;;;;;5021361;28;20052;-59
2024/03/14 09:15:14;;;;;;;15.80;9.55;;;;;;;;;;5027168;28;20450;-60
2024/03/14 09:17:40;;;;;;;15.32;9.32;;;;;;;;;;5014456;28;20026;-61
2024/03/14 09:20:08;;;;;;;16.35;9.35;;;;;;;;;;5012493;28;20041;-60
2024/03/14 09:22:33;;;;;;;15.80;9.10;;;;;;;;;;5012594;28;20018;-61
2024/03/14 09:25:01;;;;;;;15.23;8.43;;;;;;;;;;5013347;28;20494;-60
2024/03/14 09:27:26;;;;;;;15.45;8.75;;;;;;;;;;5013426;28;20030;-59
2024/03/14 09:29:54;;;;;;;14.80;8.83;;;;;;;;;;5013467;28;20030;-59
2024/03/14 09:32:19;;;;;;;18.50;9.52;;;;;;;;;;5015701;28;20037;-61
2024/03/14 09:34:44;;;;;;;19.70;10.57;;;;;;;;;;5011181;28;20022;-59
2024/03/14 09:37:10;;;;;;;21.88;9.95;;;;;;;;;;5014619;28;20045;-60
2024/03/14 09:39:35;;;;;;;15.57;8.95;;;;;;;;;;5016184;28;20173;-59
2024/03/14 09:42:00;;;;;;;18.93;9.50;;;;;;;;;;5016539;28;20084;-58
2024/03/14 09:44:27;;;;;;;18.00;10.20;;;;;;;;;;5015856;28;20022;-61
2024/03/14 09:46:59;;;;;;;19.17;9.65;;;;;;;;;;5003224;28;20030;-59
2024/03/14 09:49:24;;;;;;;15.32;8.68;;;;;;;;;;5015267;28;20057;-58
2024/03/14 09:51:51;;;;;;;14.17;8.73;;;;;;;;;;5012858;28;20073;-59
2024/03/14 09:54:17;;;;;;;14.77;8.85;;;;;;;;;;5012632;28;20456;-59
2024/03/14 09:56:43;;;;;;;16.20;9.50;;;;;;;;;;5011343;28;20065;-59
2024/03/14 09:59:10;;;;;;;14.98;9.07;;;;;;;;;;5010254;28;20013;-60
2024/03/14 10:01:35;;;;;;;;;;;;;;;;;;5012353;28;20020;-59
2024/03/14 10:04:00;;;;;;;20.13;10.75;;;;;;;;;;5013836;28;20396;-60
2024/03/14 10:06:25;;;;;;;13.83;8.80;;;;;;;;;;5011520;28;20069;-59
2024/03/14 10:08:51;;;;;;;15.43;8.93;;;;;;;;;;5011504;28;20058;-60
2024/03/14 10:11:18;;;;;;;18.08;9.60;;;;;;;;;;5016851;28;20025;-59
2024/03/14 10:13:43;;;;;;;14.57;8.35;;;;;;;;;;5011546;28;20022;-59
2024/03/14 10:16:09;;;;;;;15.57;8.73;;;;;;;;;;5011777;28;20105;-59
2024/03/14 10:18:34;;;;;;;16.10;10.00;;;;;;;;;;5014277;28;20478;-61
2024/03/14 10:21:03;;;;;;;14.60;9.07;;;;;;;;;;5011623;28;20112;-59
2024/03/14 10:23:29;;;;;;;18.67;9.38;;;;;;;;;;5011347;28;20026;-61
2024/03/14 10:25:54;;;;;;;16.17;9.00;;;;;;;;;;5010692;28;20080;-59
2024/03/14 10:28:20;;;;;;;15.43;9.40;;;;;;;;;;5011193;28;20033;-59
2024/03/14 10:30:49;;;;;;;14.50;9.02;;;;;;;;;;5012043;28;20072;-59
2024/03/14 10:33:15;;;;;;;21.35;9.48;;;;;;;;;;5010117;28;20031;-59
2024/03/14 10:35:40;;;;;;;17.55;10.13;;;;;;;;;;5025209;28;20018;-60
2024/03/14 10:38:08;;;;;;;14.67;8.67;;;;;;;;;;5020465;28;20125;-57
2024/03/14 10:40:33;;;;;;;16.05;9.65;;;;;;;;;;5024604;28;20452;-59
2024/03/14 10:42:58;;;;;;;15.10;9.00;;;;;;;;;;5025063;28;20038;-59
2024/03/14 10:45:26;;;;;;;15.77;8.25;;;;;;;;;;5025252;28;20010;-59
2024/03/14 10:47:51;;;;;;;16.30;10.10;;;;;;;;;;5026244;28;20505;-59
2024/03/14 10:50:16;;;;;;;18.92;9.88;;;;;;;;;;5034720;28;20045;-60
2024/03/14 10:52:46;;;;;;;17.67;10.98;;;;;;;;;;5012992;28;20030;-58
2024/03/14 10:55:15;;;;;;;15.38;9.23;;;;;;;;;;5008827;28;20398;-61
2024/03/14 10:57:41;;;;;;;15.32;9.70;;;;;;;;;;5012452;28;20030;-60
2024/03/14 11:00:13;;;;;;;15.35;8.80;;;;;;;;;;5010945;28;20069;-59
2024/03/14 11:02:41;;;;;;;16.42;9.65;;;;;;;;;;5009190;28;20030;-60
2024/03/14 11:05:07;;;;;;;15.35;8.63;;;;;;;;;;5010215;28;20394;-59
2024/03/14 11:07:33;;;;;;;16.50;8.48;;;;;;;;;;5010958;28;20474;-59
2024/03/14 11:09:58;;;;;;;15.53;8.90;;;;;;;;;;5013430;28;20018;-59
2024/03/14 11:12:27;;;;;;;15.52;8.82;;;;;;;;;;5016395;28;20057;-61
2024/03/14 11:14:59;;;;;;;16.50;8.63;;;;;;;;;;5016798;28;20489;-60
2024/03/14 11:17:24;;;;;;;;;;;;;;;;;;5016705;28;20045;-61
2024/03/14 11:19:50;;;;;;;17.20;8.60;;;;;;;;;;5023158;28;19963;-61
2024/03/14 11:22:17;;;;;;;13.60;7.78;;;;;;;;;;5009852;28;20459;-59
2024/03/14 11:24:43;;;;;;;13.82;8.20;;;;;;;;;;4993430;28;20069;-60
2024/03/14 11:27:09;;;;;;;14.13;8.18;;;;;;;;;;4994788;28;20478;-60
2024/03/14 11:29:35;;;;;;;14.43;7.78;;;;;;;;;;4994719;28;20109;-59
2024/03/14 11:32:09;;;;;;;13.68;7.90;;;;;;;;;;4994662;28;20109;-59
2024/03/14 11:34:37;;;;;;;14.68;7.03;;;;;;;;;;4998404;28;20045;-60
2024/03/14 11:37:02;;;;;;;13.93;7.68;;;;;;;;;;5014043;28;20010;-60
2024/03/14 11:39:27;;;;;;;13.50;7.97;;;;;;;;;;5014401;28;20032;-60
2024/03/14 11:42:04;;;;;;;12.88;7.47;;;;;;;;;;5014727;28;20022;-59
2024/03/14 11:44:30;;;;;;;11.73;7.75;;;;;;;;;;5015619;28;20094;-60
2024/03/14 11:46:57;;;;;;;15.07;6.85;;;;;;;;;;5020591;28;20030;-60
2024/03/14 11:49:27;;;;;;;15.30;7.82;;;;;;;;;;5014862;28;20022;-59
2024/03/14 11:51:52;;;;;;;14.60;7.75;;;;;;;;;;5012852;28;20034;-59
2024/03/14 11:54:20;;;;;;;11.50;6.60;;;;;;;;;;5024486;28;20029;-61
2024/03/14 11:56:47;;;;;;;11.40;6.65;;;;;;;;;;5026674;28;20030;-59
2024/03/14 11:59:12;;;;;;;13.25;7.95;;;;;;;;;;5024875;28;20032;-60
2024/03/14 12:01:38;;;;;;;16.35;8.45;;;;;;;;;;5029372;28;20073;-60
2024/03/14 12:04:03;;;;;;;13.53;7.53;;;;;;;;;;5027892;28;20042;-59
2024/03/14 12:06:28;;;;;;;14.02;8.90;;;;;;;;;;5013981;28;20026;-60
2024/03/14 12:08:54;;;;;;;13.73;7.53;;;;;;;;;;5017984;28;20014;-60
2024/03/14 12:11:20;;;;;;;15.85;8.68;;;;;;;;;;5018039;28;20484;-61
2024/03/14 12:13:48;;;;;;;15.82;9.35;;;;;;;;;;5019540;28;20042;-59
2024/03/14 12:16:14;;;;;;;16.85;9.80;;;;;;;;;;5023227;28;20025;-60
2024/03/14 12:18:39;;;;;;;18.73;10.00;;;;;;;;;;5031536;28;20409;-60
2024/03/14 12:21:05;;;;;;;17.60;10.73;;;;;;;;;;5012821;28;20026;-60
2024/03/14 12:23:30;;;;;;;17.42;10.10;;;;;;;;;;5012837;28;20022;-61
2024/03/14 12:26:01;;;;;;;18.20;10.07;;;;;;;;;;5012866;28;20478;-60
2024/03/14 12:28:27;;;;;;;15.93;9.27;;;;;;;;;;5012701;28;20453;-60
2024/03/14 12:30:58;;;;;;;17.58;10.38;;;;;;;;;;5012830;28;20033;-59
2024/03/14 12:33:23;;;;;;;16.70;9.25;;;;;;;;;;5013541;28;20030;-60
2024/03/14 12:35:51;;;;;;;14.68;8.38;;;;;;;;;;5012611;28;20045;-60
2024/03/14 12:38:22;;;;;;;14.80;8.43;;;;;;;;;;5012857;28;20025;-59
2024/03/14 12:40:49;;;;;;;15.57;8.60;;;;;;;;;;5009671;28;20105;-59
2024/03/14 12:43:15;;;;;;;14.75;8.02;;;;;;;;;;5012106;28;20022;-60
2024/03/14 12:45:41;;;;;;;13.27;7.82;;;;;;;;;;5015261;28;20022;-58
2024/03/14 12:48:06;;;;;;;12.43;6.53;;;;;;;;;;5012653;28;20117;-59
2024/03/14 12:50:31;;;;;;;11.40;6.87;;;;;;;;;;5023036;28;20092;-60
2024/03/14 12:53:01;;;;;;;11.52;7.05;;;;;;;;;;5017653;28;20072;-59
2024/03/14 12:55:27;;;;;;;12.10;7.55;;;;;;;;;;5017100;28;20608;-60
2024/03/14 12:57:52;;;;;;;12.33;7.27;;;;;;;;;;5020792;28;20041;-60
2024/03/14 13:00:20;;;;;;;9.87;5.13;;;;;;;;;;5016221;28;20039;-60
2024/03/14 13:02:49;;;;;;;9.48;5.75;;;;;;;;;;5019211;28;20478;-60
2024/03/14 13:05:15;;;;;;;8.60;4.40;;;;;;;;;;5017470;28;20017;-59
2024/03/14 13:07:41;;;;;;;9.35;4.47;;;;;;;;;;5019197;28;20062;-59
2024/03/14 13:10:11;;;;;;;8.40;3.85;;;;;;;;;;5015311;28;20026;-60
2024/03/14 13:12:38;;;;;;;8.23;3.90;;;;;;;;;;5015858;28;20029;-59
2024/03/14 13:15:11;;;;;;;8.82;4.80;;;;;;;;;;5014406;28;20025;-58
2024/03/14 13:17:37;;;;;;;11.23;5.68;;;;;;;;;;5023186;28;20017;-60
2024/03/14 13:20:04;;;;;;;11.18;5.53;;;;;;;;;;5018549;28;20026;-59
2024/03/14 13:22:30;;;;;;;11.02;5.35;;;;;;;;;;5011826;28;20085;-61
2024/03/14 13:24:57;;;;;;;8.98;4.88;;;;;;;;;;5011671;28;20018;-59
2024/03/14 13:27:23;;;;;;;12.00;5.07;;;;;;;;;;5012976;28;20030;-61
2024/03/14 13:29:49;;;;;;;13.57;6.65;;;;;;;;;;5009514;28;20034;-60
2024/03/14 13:32:14;;;;;;;12.83;5.63;;;;;;;;;;5011011;28;20030;-60
2024/03/14 13:34:43;;;;;;;9.57;5.80;;;;;;;;;;5009760;28;20076;-59
2024/03/14 13:37:08;;;;;;;8.98;4.90;;;;;;;;;;5010644;28;20057;-58
2024/03/14 13:39:35;;;;;;;13.77;6.45;;;;;;;;;;5011612;28;20022;-60
2024/03/14 13:42:00;;;;;;;10.10;5.38;;;;;;;;;;5011736;28;20020;-59
2024/03/14 13:44:26;;;;;;;10.40;5.10;;;;;;;;;;5011739;28;20048;-61
2024/03/14 13:46:52;;;;;;;9.50;4.40;;;;;;;;;;5009546;28;21398;-60
2024/03/14 13:49:18;;;;;;;8.50;4.40;;;;;;;;;;5006567;28;20030;-58
2024/03/14 13:51:43;;;;;;;8.70;4.60;;;;;;;;;;5018633;28;20095;-61
2024/03/14 13:54:17;;;;;;;10.60;3.63;;;;;;;;;;5016857;28;20022;-59
2024/03/14 13:56:43;;;;;;;8.23;4.50;;;;;;;;;;5015267;28;20841;-60
2024/03/14 13:59:08;;;;;;;8.27;3.88;;;;;;;;;;5016437;28;20057;-60
2024/03/14 14:01:33;;;;;;;7.88;4.53;;;;;;;;;;5014283;28;20029;-59
2024/03/14 14:03:59;;;;;;;8.63;4.50;;;;;;;;;;5012346;28;20029;-61
2024/03/14 14:06:25;;;;;;;8.02;4.05;;;;;;;;;;5013172;28;20032;-59
2024/03/14 14:08:51;;;;;;;7.35;3.80;;;;;;;;;;5011441;28;20478;-59
2024/03/14 14:11:17;;;;;;;9.77;3.78;;;;;;;;;;5011329;28;20022;-60
2024/03/14 14:13:46;;;;;;;6.85;3.63;;;;;;;;;;5011493;28;20025;-60
2024/03/14 14:16:12;;;;;;;9.75;4.20;;;;;;;;;;5010501;28;20026;-60
2024/03/14 14:18:37;;;;;;;8.32;4.50;;;;;;;;;;5011374;28;20037;-59
2024/03/14 14:21:03;;;;;;;9.68;4.47;;;;;;;;;;5010747;28;20059;-59
2024/03/14 14:23:28;;;;;;;8.10;3.80;;;;;;;;;;4990577;28;20123;-59
2024/03/14 14:25:54;;;;;;;7.47;3.75;;;;;;;;;;5011375;28;20029;-59
2024/03/14 14:28:20;;;;;;;8.43;3.65;;;;;;;;;;5010743;28;20109;-60
2024/03/14 14:30:46;;;;;;;10.10;4.20;;;;;;;;;;5007933;28;20097;-60